Time;durP1;ratioP1;P1;durP2;ratioP2;P2;SDS_P1;SDS_P2;PMS_P1;PMS_P2;Temp;Humidity;BMP_temperature;BMP_pressure;BME280_temperature;BME280_humidity;BME280_pressure;Samples;Min_cycle;Max_cycle;Signal;HPM_P1;HPM_P2
2022/05/02 00:00:58;;;;;;;3.35;2.60;;;;;;;;;;1724858;82;21084;-78
2022/05/02 00:03:25;;;;;;;4.08;2.45;;;;;;;;;;1751853;82;21092;-79
2022/05/02 00:05:51;;;;;;;6.30;3.10;;;;;;;;;;1753898;82;21056;-78
2022/05/02 00:08:17;;;;;;;3.95;2.67;;;;;;;;;;1753464;82;21449;-78
2022/05/02 00:10:45;;;;;;;4.05;2.58;;;;;;;;;;1746697;81;21045;-78
2022/05/02 00:13:11;;;;;;;4.55;2.62;;;;;;;;;;1714375;84;21137;-78
2022/05/02 00:15:39;;;;;;;4.72;2.75;;;;;;;;;;1715182;84;21123;-78
2022/05/02 00:18:06;;;;;;;4.72;2.45;;;;;;;;;;1753496;82;21099;-78
2022/05/02 00:20:33;;;;;;;4.08;2.67;;;;;;;;;;1750268;81;21621;-78
2022/05/02 00:23:02;;;;;;;6.05;2.58;;;;;;;;;;1741297;82;21118;-78
2022/05/02 00:25:31;;;;;;;3.70;2.40;;;;;;;;;;1742278;82;21089;-78
2022/05/02 00:27:57;;;;;;;5.08;2.50;;;;;;;;;;1741433;82;21574;-78
2022/05/02 00:30:24;;;;;;;6.30;2.75;;;;;;;;;;1741723;82;21111;-78
2022/05/02 00:32:52;;;;;;;5.35;2.67;;;;;;;;;;1741362;82;21563;-79
2022/05/02 00:35:18;;;;;;;5.22;2.65;;;;;;;;;;1741300;82;21078;-79
2022/05/02 00:37:46;;;;;;;3.60;2.60;;;;;;;;;;1701161;84;21634;-79
2022/05/02 00:40:13;;;;;;;4.42;2.83;;;;;;;;;;1691562;84;21108;-78
2022/05/02 00:42:39;;;;;;;3.77;2.58;;;;;;;;;;1711697;83;21100;-79
2022/05/02 00:45:07;;;;;;;4.05;2.47;;;;;;;;;;1719435;83;21553;-78
2022/05/02 00:47:33;;;;;;;4.60;2.58;;;;;;;;;;1719493;83;21555;-78
2022/05/02 00:49:59;;;;;;;4.10;2.58;;;;;;;;;;1719596;83;21033;-79
2022/05/02 00:52:26;;;;;;;3.30;2.35;;;;;;;;;;1705531;83;20997;-78
2022/05/02 00:54:53;;;;;;;4.20;2.45;;;;;;;;;;1705605;84;21552;-78
2022/05/02 00:57:19;;;;;;;4.30;2.33;;;;;;;;;;1705435;84;21041;-78
2022/05/02 00:59:45;;;;;;;4.08;2.40;;;;;;;;;;1705146;84;21089;-79
2022/05/02 01:05:01;;;;;;;4.47;2.50;;;;;;;;;;1689124;79;21119;-79
2022/05/02 01:07:28;;;;;;;6.55;2.58;;;;;;;;;;1690170;85;21520;-80
2022/05/02 01:09:54;;;;;;;3.75;2.37;;;;;;;;;;1690295;85;20996;-80
2022/05/02 01:12:21;;;;;;;3.40;2.60;;;;;;;;;;1687085;85;21039;-79
2022/05/02 01:14:48;;;;;;;3.02;2.47;;;;;;;;;;1662183;86;21016;-79
2022/05/02 01:17:14;;;;;;;4.87;2.52;;;;;;;;;;1630644;88;21043;-79
2022/05/02 01:19:43;;;;;;;4.90;3.25;;;;;;;;;;1655051;87;21122;-79
2022/05/02 01:22:09;;;;;;;6.03;2.50;;;;;;;;;;1662102;85;22211;-78
2022/05/02 01:24:37;;;;;;;3.27;2.27;;;;;;;;;;1690279;83;21075;-78
2022/05/02 01:27:03;;;;;;;3.87;2.70;;;;;;;;;;1688851;85;21604;-78
2022/05/02 01:29:31;;;;;;;6.28;2.87;;;;;;;;;;1690426;85;21076;-77
2022/05/02 01:31:57;;;;;;;4.22;2.60;;;;;;;;;;1686168;85;21234;-77
2022/05/02 01:34:23;;;;;;;5.15;2.80;;;;;;;;;;1685926;85;21043;-78
2022/05/02 01:36:50;;;;;;;4.80;2.75;;;;;;;;;;1683672;85;21054;-78
2022/05/02 01:39:16;;;;;;;4.58;2.83;;;;;;;;;;1686169;85;21051;-78
2022/05/02 01:41:44;;;;;;;4.40;2.70;;;;;;;;;;1683771;85;21154;-79
2022/05/02 01:44:10;;;;;;;3.30;2.33;;;;;;;;;;1685491;85;21530;-79
2022/05/02 01:46:37;;;;;;;4.60;2.72;;;;;;;;;;1685846;85;21059;-78
2022/05/02 01:49:03;;;;;;;5.85;2.58;;;;;;;;;;1666093;85;21040;-79
2022/05/02 01:51:29;;;;;;;4.00;2.80;;;;;;;;;;1675383;85;21138;-78
2022/05/02 01:53:56;;;;;;;3.08;2.25;;;;;;;;;;1680539;85;21061;-78
2022/05/02 01:56:22;;;;;;;3.50;2.30;;;;;;;;;;1680521;85;21049;-78
2022/05/02 01:58:49;;;;;;;2.92;2.37;;;;;;;;;;1690347;84;21524;-78
2022/05/02 02:01:14;;;;;;;3.37;2.55;;;;;;;;;;1686026;85;21111;-78
2022/05/02 02:03:40;;;;;;;4.30;2.80;;;;;;;;;;1723018;82;21139;-78
2022/05/02 02:06:07;;;;;;;5.20;2.35;;;;;;;;;;1717968;83;21037;-78
2022/05/02 02:08:35;;;;;;;5.70;2.60;;;;;;;;;;1715956;83;21042;-75
2022/05/02 02:11:02;;;;;;;3.90;2.60;;;;;;;;;;1714769;84;21082;-76
2022/05/02 02:13:29;;;;;;;3.17;2.30;;;;;;;;;;1714566;84;21039;-75
2022/05/02 02:15:55;;;;;;;3.92;2.27;;;;;;;;;;1715198;83;22226;-75
2022/05/02 02:18:21;;;;;;;3.42;2.42;;;;;;;;;;1715656;83;21078;-75
2022/05/02 02:20:48;;;;;;;5.53;3.50;;;;;;;;;;1714236;83;21130;-75
2022/05/02 02:23:14;;;;;;;5.20;2.60;;;;;;;;;;1714374;84;21070;-75
2022/05/02 02:25:40;;;;;;;3.12;2.30;;;;;;;;;;1713754;84;21514;-74
2022/05/02 02:28:07;;;;;;;4.50;2.62;;;;;;;;;;1716451;82;21060;-75
2022/05/02 02:30:34;;;;;;;4.37;2.50;;;;;;;;;;1718921;83;21068;-75
2022/05/02 02:33:01;;;;;;;5.50;2.92;;;;;;;;;;1719006;83;21041;-76
2022/05/02 02:35:28;;;;;;;5.37;2.47;;;;;;;;;;1719126;83;21068;-75
2022/05/02 02:37:54;;;;;;;3.80;2.50;;;;;;;;;;1717309;83;21546;-74
2022/05/02 02:40:20;;;;;;;4.80;2.90;;;;;;;;;;1714724;84;21102;-75
2022/05/02 02:42:46;;;;;;;5.85;2.67;;;;;;;;;;1714427;84;21031;-75
2022/05/02 02:45:13;;;;;;;5.37;3.10;;;;;;;;;;1714377;84;21555;-74
2022/05/02 02:47:41;;;;;;;4.55;2.95;;;;;;;;;;1713597;83;21102;-74
2022/05/02 02:50:08;;;;;;;4.90;2.90;;;;;;;;;;1714638;84;21061;-76
2022/05/02 02:52:34;;;;;;;5.20;2.77;;;;;;;;;;1714539;84;21571;-76
2022/05/02 02:55:00;;;;;;;3.35;2.60;;;;;;;;;;1714330;84;21091;-77
2022/05/02 02:57:26;;;;;;;4.42;2.72;;;;;;;;;;1715140;83;21009;-76
2022/05/02 02:59:53;;;;;;;3.45;2.45;;;;;;;;;;1716176;83;21071;-76
2022/05/02 03:02:19;;;;;;;3.72;2.50;;;;;;;;;;1715283;83;21561;-77
2022/05/02 03:07:29;;;;;;;4.25;2.67;;;;;;;;;;1696472;84;21120;-75
2022/05/02 03:09:57;;;;;;;4.80;2.55;;;;;;;;;;1651422;86;21092;-75
2022/05/02 03:12:23;;;;;;;10.88;3.00;;;;;;;;;;1674130;84;21011;-75
2022/05/02 03:14:50;;;;;;;24.37;3.98;;;;;;;;;;1700583;84;21548;-75
2022/05/02 03:17:16;;;;;;;9.53;3.75;;;;;;;;;;1700586;84;21003;-75
2022/05/02 03:19:44;;;;;;;9.58;2.70;;;;;;;;;;1692581;84;21020;-75
2022/05/02 03:22:10;;;;;;;6.12;2.58;;;;;;;;;;1688525;84;21055;-75
2022/05/02 03:24:36;;;;;;;4.67;2.70;;;;;;;;;;1648145;87;21104;-75
2022/05/02 03:27:03;;;;;;;3.98;2.77;;;;;;;;;;1685949;84;21060;-76
2022/05/02 03:29:29;;;;;;;5.75;2.83;;;;;;;;;;1689733;84;21071;-76
2022/05/02 03:31:55;;;;;;;5.55;2.72;;;;;;;;;;1689122;84;21032;-76
2022/05/02 03:34:21;;;;;;;3.35;2.50;;;;;;;;;;1694636;84;21015;-76
2022/05/02 03:36:47;;;;;;;4.95;2.70;;;;;;;;;;1694472;84;21105;-76
2022/05/02 03:39:13;;;;;;;4.75;2.72;;;;;;;;;;1695102;84;21497;-76
2022/05/02 03:41:39;;;;;;;4.15;2.72;;;;;;;;;;1683280;84;21048;-75
2022/05/02 03:44:05;;;;;;;3.27;2.58;;;;;;;;;;1696454;84;21082;-76
2022/05/02 03:46:31;;;;;;;4.90;2.80;;;;;;;;;;1687607;84;21541;-76
2022/05/02 03:49:00;;;;;;;4.65;2.87;;;;;;;;;;1686363;84;21083;-77
2022/05/02 03:51:26;;;;;;;4.72;2.65;;;;;;;;;;1658822;85;21065;-77
2022/05/02 03:53:52;;;;;;;3.60;2.47;;;;;;;;;;1658643;86;21076;-77
2022/05/02 03:56:19;;;;;;;4.17;2.87;;;;;;;;;;1658337;85;21081;-78
2022/05/02 03:58:46;;;;;;;6.22;2.80;;;;;;;;;;1658653;86;21544;-77
2022/05/02 04:01:12;;;;;;;4.22;2.62;;;;;;;;;;1671004;84;21037;-79
2022/05/02 04:03:38;;;;;;;4.80;2.87;;;;;;;;;;1686912;84;21087;-77
2022/05/02 04:06:05;;;;;;;4.10;2.70;;;;;;;;;;1714337;83;21085;-78
2022/05/02 04:08:31;;;;;;;4.60;3.15;;;;;;;;;;1702018;83;21026;-78
2022/05/02 04:10:58;;;;;;;4.35;2.80;;;;;;;;;;1682829;85;21564;-77
2022/05/02 04:13:24;;;;;;;3.90;2.70;;;;;;;;;;1712968;83;21037;-78
2022/05/02 04:15:50;;;;;;;28.77;5.15;;;;;;;;;;1717875;83;21013;-78
2022/05/02 04:18:16;;;;;;;5.28;2.58;;;;;;;;;;1719735;83;21013;-78
2022/05/02 04:20:43;;;;;;;5.15;2.90;;;;;;;;;;1715824;83;21082;-78
2022/05/02 04:23:10;;;;;;;4.17;2.60;;;;;;;;;;1718068;83;21578;-78
2022/05/02 04:25:36;;;;;;;3.58;2.52;;;;;;;;;;1719293;83;21012;-79
2022/05/02 04:28:02;;;;;;;4.22;2.47;;;;;;;;;;1712953;83;21058;-79
2022/05/02 04:30:28;;;;;;;3.85;2.87;;;;;;;;;;1714560;84;21539;-79
2022/05/02 04:32:54;;;;;;;4.58;2.70;;;;;;;;;;1714926;83;21526;-79
2022/05/02 04:35:20;;;;;;;4.50;2.70;;;;;;;;;;1719604;83;21531;-80
2022/05/02 04:37:46;;;;;;;5.12;2.85;;;;;;;;;;1719318;83;21037;-79
2022/05/02 04:40:12;;;;;;;4.70;2.67;;;;;;;;;;1719257;81;21001;-80
2022/05/02 04:42:38;;;;;;;3.65;2.50;;;;;;;;;;1717958;83;21028;-79
2022/05/02 04:45:04;;;;;;;3.75;2.47;;;;;;;;;;1717648;83;21537;-80
2022/05/02 04:47:31;;;;;;;4.40;2.70;;;;;;;;;;1690203;85;21042;-80
2022/05/02 04:49:57;;;;;;;4.50;2.55;;;;;;;;;;1690396;85;21603;-79
2022/05/02 04:52:23;;;;;;;3.65;2.50;;;;;;;;;;1690707;85;21529;-80
2022/05/02 04:54:49;;;;;;;3.67;2.50;;;;;;;;;;1690449;85;21422;-80
2022/05/02 04:57:15;;;;;;;3.87;2.58;;;;;;;;;;1712583;83;21070;-80
2022/05/02 04:59:41;;;;;;;4.17;2.95;;;;;;;;;;1717536;83;21018;-81
2022/05/02 05:02:07;;;;;;;4.17;2.72;;;;;;;;;;1711067;83;21011;-81
2022/05/02 05:04:34;;;;;;;3.08;2.40;;;;;;;;;;1713312;83;21111;-81
2022/05/02 05:07:00;;;;;;;4.20;2.42;;;;;;;;;;1707355;83;21111;-81
2022/05/02 05:09:26;;;;;;;4.33;2.30;;;;;;;;;;1683038;83;21021;-79
2022/05/02 05:11:57;;;;;;;3.10;2.50;;;;;;;;;;1689096;84;21010;-80
2022/05/02 05:17:18;;;;;;;3.72;2.55;;;;;;;;;;1653787;83;21041;-80
2022/05/02 05:19:49;;;;;;;4.72;2.65;;;;;;;;;;1631216;86;21831;-78
2022/05/02 05:22:23;;;;;;;4.17;2.67;;;;;;;;;;1692232;83;21057;-77
2022/05/02 05:24:54;;;;;;;4.80;2.90;;;;;;;;;;1637621;87;21092;-77
2022/05/02 05:27:25;;;;;;;4.33;2.62;;;;;;;;;;1709698;83;21060;-79
2022/05/02 05:30:06;;;;;;;3.85;2.75;;;;;;;;;;1710566;83;21556;-75
2022/05/02 05:32:50;;;;;;;3.58;2.70;;;;;;;;;;1710305;83;21100;-77
2022/05/02 05:35:18;;;;;;;3.60;2.40;;;;;;;;;;1704955;84;21081;-77
2022/05/02 05:37:49;;;;;;;7.85;3.02;;;;;;;;;;1691166;84;21046;-76
2022/05/02 05:40:26;;;;;;;4.10;2.70;;;;;;;;;;1673486;84;21096;-75
2022/05/02 05:42:54;;;;;;;4.47;2.60;;;;;;;;;;1692688;84;21080;-75
2022/05/02 05:45:28;;;;;;;4.28;2.85;;;;;;;;;;1661242;84;21045;-75
2022/05/02 05:48:14;;;;;;;3.62;2.67;;;;;;;;;;1671414;84;21049;-76
2022/05/02 05:50:42;;;;;;;3.55;2.40;;;;;;;;;;1699669;84;21505;-76
2022/05/02 05:53:16;;;;;;;3.90;2.42;;;;;;;;;;1685087;84;21529;-76
2022/05/02 05:56:01;;;;;;;4.78;2.80;;;;;;;;;;1718556;83;21533;-77
2022/05/02 05:58:45;;;;;;;4.62;2.33;;;;;;;;;;1699195;83;21053;-76
2022/05/02 06:01:11;;;;;;;5.30;2.70;;;;;;;;;;1638136;86;21108;-76
2022/05/02 06:03:39;;;;;;;5.58;2.65;;;;;;;;;;1710988;83;21009;-76
2022/05/02 06:06:05;;;;;;;6.53;3.00;;;;;;;;;;1716863;83;21084;-76
2022/05/02 06:08:32;;;;;;;3.72;2.60;;;;;;;;;;1719364;83;21037;-77
2022/05/02 06:10:58;;;;;;;4.03;2.70;;;;;;;;;;1718866;83;21536;-77
2022/05/02 06:13:25;;;;;;;3.67;2.25;;;;;;;;;;1712526;83;21026;-76
2022/05/02 06:18:37;;;;;;;5.53;2.50;;;;;;;;;;1690505;85;21086;-77
2022/05/02 06:21:04;;;;;;;4.60;2.58;;;;;;;;;;1703791;83;20996;-77
2022/05/02 06:23:34;;;;;;;4.22;2.30;;;;;;;;;;1716988;83;21185;-77
2022/05/02 06:26:01;;;;;;;3.10;2.20;;;;;;;;;;1717523;83;21073;-77
2022/05/02 06:28:31;;;;;;;5.97;2.40;;;;;;;;;;1717540;83;21061;-77
2022/05/02 06:30:59;;;;;;;9.93;2.80;;;;;;;;;;1715358;83;21081;-78
2022/05/02 06:33:25;;;;;;;3.55;2.00;;;;;;;;;;1714461;84;21019;-78
2022/05/02 06:35:52;;;;;;;19.15;3.08;;;;;;;;;;1714313;84;21545;-78
2022/05/02 06:38:23;;;;;;;3.00;2.30;;;;;;;;;;1698419;83;21528;-78
2022/05/02 06:40:49;;;;;;;3.67;2.20;;;;;;;;;;1691073;83;21498;-80
2022/05/02 06:43:17;;;;;;;3.00;1.87;;;;;;;;;;1701237;83;21021;-79
2022/05/02 06:45:58;;;;;;;3.12;1.90;;;;;;;;;;1690959;83;21070;-80
2022/05/02 06:48:29;;;;;;;3.08;1.90;;;;;;;;;;1692089;83;21054;-78
2022/05/02 06:51:04;;;;;;;2.70;2.00;;;;;;;;;;1650505;86;21540;-77
2022/05/02 06:53:32;;;;;;;2.85;2.20;;;;;;;;;;1664826;85;20978;-76
2022/05/02 06:56:16;;;;;;;3.25;2.02;;;;;;;;;;1717538;83;20997;-77
2022/05/02 06:59:34;;;;;;;2.42;1.90;;;;;;;;;;1800197;79;22802;-78
2022/05/02 07:02:02;;;;;;;8.78;2.42;;;;;;;;;;1743486;82;21589;-76
2022/05/02 07:04:37;;;;;;;10.03;2.52;;;;;;;;;;1723339;82;21090;-76
2022/05/02 07:07:10;;;;;;;1.90;1.70;;;;;;;;;;1730098;83;21100;-77
2022/05/02 07:09:43;;;;;;;3.40;1.77;;;;;;;;;;1731194;81;21082;-78
2022/05/02 07:12:11;;;;;;;2.92;2.10;;;;;;;;;;1700868;83;20993;-78
2022/05/02 07:14:52;;;;;;;30.57;3.75;;;;;;;;;;1684359;85;21069;-76
2022/05/02 07:17:20;;;;;;;4.47;2.10;;;;;;;;;;1684575;85;21069;-77
2022/05/02 07:20:00;;;;;;;1.98;1.52;;;;;;;;;;1679473;85;21055;-76
2022/05/02 07:22:34;;;;;;;3.37;1.57;;;;;;;;;;1689520;83;21487;-80
2022/05/02 07:25:08;;;;;;;2.72;1.90;;;;;;;;;;1675141;85;21076;-82
2022/05/02 07:27:40;;;;;;;10.38;2.15;;;;;;;;;;1674817;85;21032;-81
2022/05/02 07:30:07;;;;;;;2.40;1.85;;;;;;;;;;1680127;85;21082;-81
2022/05/02 07:32:34;;;;;;;2.35;1.70;;;;;;;;;;1668543;84;21027;-83
2022/05/02 07:35:00;;;;;;;3.20;2.00;;;;;;;;;;1663357;86;21123;-82
2022/05/02 07:37:26;;;;;;;3.12;2.08;;;;;;;;;;1686212;84;21224;-81
2022/05/02 07:39:52;;;;;;;2.52;1.87;;;;;;;;;;1690020;83;21510;-81
2022/05/02 07:42:20;;;;;;;4.12;1.87;;;;;;;;;;1684537;85;21028;-81
2022/05/02 07:44:47;;;;;;;3.92;2.10;;;;;;;;;;1674673;86;21051;-81
2022/05/02 07:47:13;;;;;;;2.47;1.62;;;;;;;;;;1674652;86;21075;-82
2022/05/02 07:49:39;;;;;;;2.52;1.95;;;;;;;;;;1674754;86;21066;-81
2022/05/02 07:52:06;;;;;;;2.40;1.90;;;;;;;;;;1674563;86;21551;-79
2022/05/02 07:54:34;;;;;;;3.12;2.17;;;;;;;;;;1686333;85;21642;-80
2022/05/02 07:57:01;;;;;;;3.40;2.08;;;;;;;;;;1692817;85;21044;-81
2022/05/02 07:59:31;;;;;;;1.98;1.67;;;;;;;;;;1668163;85;21052;-79
2022/05/02 08:01:57;;;;;;;2.55;2.05;;;;;;;;;;1658192;86;21056;-80
2022/05/02 08:04:28;;;;;;;3.30;2.33;;;;;;;;;;1666297;85;21155;-80
2022/05/02 08:06:56;;;;;;;2.85;2.22;;;;;;;;;;1668250;85;21554;-80
2022/05/02 08:09:29;;;;;;;3.67;2.47;;;;;;;;;;1667254;86;21095;-79
2022/05/02 08:11:59;;;;;;;2.58;2.20;;;;;;;;;;1684491;83;21056;-78
2022/05/02 08:14:27;;;;;;;18.82;3.20;;;;;;;;;;1712533;84;21551;-79
2022/05/02 08:16:57;;;;;;;5.78;2.20;;;;;;;;;;1714545;83;21042;-79
2022/05/02 08:19:25;;;;;;;3.17;2.40;;;;;;;;;;1715509;82;21015;-77
2022/05/02 08:21:53;;;;;;;2.80;2.00;;;;;;;;;;1676370;85;21579;-78
2022/05/02 08:27:31;;;;;;;3.27;2.20;;;;;;;;;;1717565;83;21030;-77
2022/05/02 08:30:08;;;;;;;3.08;2.33;;;;;;;;;;1717884;83;22215;-77
2022/05/02 08:32:44;;;;;;;7.33;2.33;;;;;;;;;;1720671;82;21073;-77
2022/05/02 08:35:14;;;;;;;2.60;1.90;;;;;;;;;;1714020;83;21068;-77
2022/05/02 08:37:54;;;;;;;4.58;1.92;;;;;;;;;;1716820;83;21057;-77
2022/05/02 08:40:25;;;;;;;3.55;2.20;;;;;;;;;;1729017;82;21480;-77
2022/05/02 08:43:06;;;;;;;4.80;2.27;;;;;;;;;;1727713;82;21020;-78
2022/05/02 08:45:50;;;;;;;2.90;2.33;;;;;;;;;;1717139;83;21574;-80
2022/05/02 08:48:29;;;;;;;4.33;2.17;;;;;;;;;;1679115;85;21068;-79
2022/05/02 08:51:13;;;;;;;4.47;2.52;;;;;;;;;;1716263;83;21106;-80
2022/05/02 08:53:47;;;;;;;3.62;2.17;;;;;;;;;;1716942;83;21117;-81
2022/05/02 08:56:15;;;;;;;2.35;2.02;;;;;;;;;;1716623;83;22292;-78
2022/05/02 08:59:00;;;;;;;3.08;2.40;;;;;;;;;;1720609;81;21080;-78
2022/05/02 09:01:44;;;;;;;3.35;2.33;;;;;;;;;;1720272;83;21080;-78
2022/05/02 09:04:25;;;;;;;3.25;2.20;;;;;;;;;;1722322;81;21595;-76
2022/05/02 09:07:09;;;;;;;2.35;2.05;;;;;;;;;;1735266;81;21077;-77
2022/05/02 09:09:56;;;;;;;5.12;2.30;;;;;;;;;;1730464;81;21097;-76
2022/05/02 09:12:33;;;;;;;4.67;2.62;;;;;;;;;;1725435;83;21053;-77
2022/05/02 09:15:06;;;;;;;4.65;2.20;;;;;;;;;;1732880;82;20984;-78
2022/05/02 09:17:51;;;;;;;3.77;2.33;;;;;;;;;;1733008;82;21045;-77
2022/05/02 09:20:20;;;;;;;4.08;2.22;;;;;;;;;;1756040;81;21588;-76
2022/05/02 09:23:05;;;;;;;2.95;2.17;;;;;;;;;;1723289;83;21469;-76
2022/05/02 09:25:37;;;;;;;3.87;2.15;;;;;;;;;;1697227;84;21072;-76
2022/05/02 09:28:17;;;;;;;3.33;2.42;;;;;;;;;;1713686;83;21332;-77
2022/05/02 09:30:51;;;;;;;3.45;2.37;;;;;;;;;;1724261;83;22039;-76
2022/05/02 09:33:19;;;;;;;3.70;2.17;;;;;;;;;;1663104;86;22185;-76
2022/05/02 09:35:52;;;;;;;4.20;2.17;;;;;;;;;;1650133;85;21542;-75
2022/05/02 09:38:20;;;;;;;7.58;2.70;;;;;;;;;;1657760;86;21076;-76
2022/05/02 09:40:47;;;;;;;5.95;2.30;;;;;;;;;;1661068;86;21040;-76
2022/05/02 09:43:18;;;;;;;2.83;2.20;;;;;;;;;;1688470;84;21433;-76
2022/05/02 09:51:48;;;;;;;3.58;2.52;;;;;;;;;;1718144;83;21033;-76
2022/05/02 09:56:37;;;;;;;2.27;2.00;;;;;;;;;;1720583;83;21075;-76
2022/05/02 09:56:46;;;;;;;2.52;1.95;;;;;;;;;;1706025;81;21009;-75
2022/05/02 09:59:20;;;;;;;2.98;2.33;;;;;;;;;;1725692;83;21055;-76
2022/05/02 10:01:48;;;;;;;2.83;2.22;;;;;;;;;;1731161;83;21046;-76
2022/05/02 10:04:33;;;;;;;3.37;2.27;;;;;;;;;;1729468;81;21100;-76
2022/05/02 10:07:06;;;;;;;4.37;2.27;;;;;;;;;;1702145;84;21540;-77
2022/05/02 10:09:49;;;;;;;3.22;2.02;;;;;;;;;;1702306;84;21123;-75
2022/05/02 10:12:26;;;;;;;3.70;2.20;;;;;;;;;;1725263;83;21093;-77
2022/05/02 10:15:11;;;;;;;2.80;2.10;;;;;;;;;;1725928;83;21013;-77
2022/05/02 10:17:55;;;;;;;2.83;2.37;;;;;;;;;;1729645;81;21622;-77
2022/05/02 10:20:22;;;;;;;4.00;2.27;;;;;;;;;;1731815;82;21528;-77
2022/05/02 10:22:50;;;;;;;16.48;3.08;;;;;;;;;;1725471;83;21024;-76
2022/05/02 10:25:25;;;;;;;2.90;2.30;;;;;;;;;;1725440;83;21040;-76
2022/05/02 10:27:53;;;;;;;3.00;2.37;;;;;;;;;;1728142;81;20983;-76
2022/05/02 10:30:19;;;;;;;3.52;2.08;;;;;;;;;;1729100;82;22184;-76
2022/05/02 10:32:51;;;;;;;3.67;2.42;;;;;;;;;;1729502;82;21064;-76
2022/05/02 10:35:17;;;;;;;4.12;2.60;;;;;;;;;;1729573;82;20993;-78
2022/05/02 10:37:57;;;;;;;2.67;2.30;;;;;;;;;;1729560;82;21056;-77
2022/05/02 10:40:28;;;;;;;3.80;2.55;;;;;;;;;;1729989;82;21041;-77
2022/05/02 10:42:56;;;;;;;3.98;2.60;;;;;;;;;;1729942;82;21076;-78
2022/05/02 10:45:24;;;;;;;3.87;2.20;;;;;;;;;;1729651;82;21077;-77
2022/05/02 10:47:51;;;;;;;4.80;2.90;;;;;;;;;;1731526;83;21084;-77
2022/05/02 10:50:22;;;;;;;4.67;2.52;;;;;;;;;;1731509;83;20993;-77
2022/05/02 10:53:08;;;;;;;3.47;2.12;;;;;;;;;;1731291;83;21040;-77
2022/05/02 10:55:39;;;;;;;3.00;2.33;;;;;;;;;;1731389;83;21057;-78
2022/05/02 10:58:05;;;;;;;2.58;2.10;;;;;;;;;;1693906;84;21544;-76
2022/05/02 11:00:33;;;;;;;6.35;2.55;;;;;;;;;;1718469;83;21528;-78
2022/05/02 11:03:18;;;;;;;3.27;2.50;;;;;;;;;;1718395;82;21080;-78
2022/05/02 11:05:45;;;;;;;4.87;2.33;;;;;;;;;;1732506;82;21051;-78
2022/05/02 11:08:12;;;;;;;7.47;2.60;;;;;;;;;;1720665;82;21088;-78
2022/05/02 11:10:40;;;;;;;3.27;2.37;;;;;;;;;;1718845;82;20976;-78
2022/05/02 11:13:20;;;;;;;7.65;2.60;;;;;;;;;;1743662;82;21020;-78
2022/05/02 11:16:05;;;;;;;23.02;4.37;;;;;;;;;;1743060;82;21027;-77
2022/05/02 11:21:42;;;;;;;8.50;3.20;;;;;;;;;;1713383;83;21053;-76
2022/05/02 11:24:28;;;;;;;4.20;2.30;;;;;;;;;;1714732;83;21005;-78
2022/05/02 11:26:59;;;;;;;3.55;2.30;;;;;;;;;;1625444;88;21073;-77
2022/05/02 11:29:33;;;;;;;3.62;2.50;;;;;;;;;;1626061;88;21138;-77
2022/05/02 11:32:02;;;;;;;4.47;2.60;;;;;;;;;;1625972;86;21028;-77
2022/05/02 11:34:33;;;;;;;4.33;2.40;;;;;;;;;;1738858;82;21048;-77
2022/05/02 11:36:59;;;;;;;2.17;1.90;;;;;;;;;;1744509;81;20992;-77
2022/05/02 11:39:37;;;;;;;2.55;2.25;;;;;;;;;;1719190;82;21022;-78
2022/05/02 11:42:06;;;;;;;3.35;2.20;;;;;;;;;;1718872;82;21061;-77
2022/05/02 11:44:33;;;;;;;3.45;2.35;;;;;;;;;;1739307;81;21533;-76
2022/05/02 11:47:08;;;;;;;5.58;2.50;;;;;;;;;;1679368;85;21029;-77
2022/05/02 11:49:43;;;;;;;13.30;2.90;;;;;;;;;;1717093;83;21041;-76
2022/05/02 11:52:13;;;;;;;4.92;2.33;;;;;;;;;;1689477;85;21053;-77
2022/05/02 11:54:42;;;;;;;2.60;1.95;;;;;;;;;;1689929;85;21048;-76
2022/05/02 11:57:17;;;;;;;4.22;2.20;;;;;;;;;;1702280;83;21026;-77
2022/05/02 11:59:45;;;;;;;7.95;2.55;;;;;;;;;;1719553;81;21053;-77
2022/05/02 12:02:13;;;;;;;4.20;2.45;;;;;;;;;;1696598;84;21033;-79
2022/05/02 12:04:39;;;;;;;4.20;2.30;;;;;;;;;;1701151;81;21211;-77
2022/05/02 12:07:08;;;;;;;2.62;2.30;;;;;;;;;;1708333;82;21079;-77
2022/05/02 12:09:35;;;;;;;3.35;2.12;;;;;;;;;;1725868;81;22157;-76
2022/05/02 12:12:08;;;;;;;3.47;2.17;;;;;;;;;;1746192;81;21071;-77
2022/05/02 12:14:36;;;;;;;5.95;2.30;;;;;;;;;;1744283;81;21574;-77
2022/05/02 12:17:09;;;;;;;2.58;2.22;;;;;;;;;;1740197;81;21107;-77
2022/05/02 12:19:37;;;;;;;11.18;3.17;;;;;;;;;;1743824;81;21004;-77
2022/05/02 12:22:05;;;;;;;2.70;2.30;;;;;;;;;;1751341;81;21086;-77
2022/05/02 12:24:33;;;;;;;3.65;2.37;;;;;;;;;;1740918;81;20995;-76
2022/05/02 12:27:00;;;;;;;3.52;2.50;;;;;;;;;;1739670;81;21092;-76
2022/05/02 12:29:27;;;;;;;4.12;2.42;;;;;;;;;;1727536;81;20990;-76
2022/05/02 12:31:55;;;;;;;2.80;2.20;;;;;;;;;;1746509;81;21101;-76
2022/05/02 12:34:24;;;;;;;4.70;2.33;;;;;;;;;;1683805;85;21064;-75
2022/05/02 12:36:51;;;;;;;5.22;2.50;;;;;;;;;;1727698;81;21008;-76
2022/05/02 12:39:27;;;;;;;4.60;2.20;;;;;;;;;;1731345;81;21543;-76
2022/05/02 12:41:54;;;;;;;3.67;2.35;;;;;;;;;;1727296;82;21009;-77
2022/05/02 12:44:22;;;;;;;2.83;2.12;;;;;;;;;;1721035;83;21528;-78
2022/05/02 12:46:50;;;;;;;3.60;2.27;;;;;;;;;;1676253;84;21607;-78
2022/05/02 12:49:21;;;;;;;3.70;1.90;;;;;;;;;;1724406;83;21045;-77
2022/05/02 12:51:52;;;;;;;2.50;1.90;;;;;;;;;;1724681;82;21069;-78
2022/05/02 12:54:18;;;;;;;2.80;2.30;;;;;;;;;;1723970;83;21057;-78
2022/05/02 13:02:35;;;;;;;3.22;2.30;;;;;;;;;;1716879;83;21110;-78
2022/05/02 13:05:06;;;;;;;2.83;2.33;;;;;;;;;;1716707;82;21125;-78
2022/05/02 13:07:44;;;;;;;9.90;2.50;;;;;;;;;;1716090;83;21091;-78
2022/05/02 13:10:22;;;;;;;3.10;2.10;;;;;;;;;;1716239;83;21503;-78
2022/05/02 13:13:02;;;;;;;5.47;2.72;;;;;;;;;;1717127;83;21313;-77
2022/05/02 13:15:31;;;;;;;3.55;2.30;;;;;;;;;;1676455;83;21566;-78
2022/05/02 13:17:58;;;;;;;4.12;2.30;;;;;;;;;;1712861;83;21569;-78
2022/05/02 13:20:28;;;;;;;4.37;2.20;;;;;;;;;;1717746;83;21013;-78
2022/05/02 13:22:59;;;;;;;2.80;2.20;;;;;;;;;;1721325;82;20981;-78
2022/05/02 13:25:44;;;;;;;10.23;2.42;;;;;;;;;;1738305;82;21525;-78
2022/05/02 13:28:10;;;;;;;2.67;2.27;;;;;;;;;;1724133;82;21044;-78
2022/05/02 13:30:36;;;;;;;8.20;2.98;;;;;;;;;;1717565;83;21070;-77
2022/05/02 13:33:04;;;;;;;6.40;2.62;;;;;;;;;;1713672;83;21049;-78
2022/05/02 13:35:33;;;;;;;8.60;2.72;;;;;;;;;;1718477;82;21019;-77
2022/05/02 13:38:10;;;;;;;6.35;2.58;;;;;;;;;;1708792;83;21100;-77
2022/05/02 13:40:51;;;;;;;3.33;2.25;;;;;;;;;;1714860;82;21065;-79
2022/05/02 13:43:23;;;;;;;3.90;2.22;;;;;;;;;;1714176;83;21026;-78
2022/05/02 13:46:01;;;;;;;16.10;3.50;;;;;;;;;;1687108;83;21098;-78
2022/05/02 13:48:29;;;;;;;3.20;1.75;;;;;;;;;;1716878;83;21558;-78
2022/05/02 13:50:59;;;;;;;2.80;2.10;;;;;;;;;;1722777;82;20925;-79
2022/05/02 13:53:32;;;;;;;2.65;2.00;;;;;;;;;;1715888;83;21055;-78
2022/05/02 13:55:59;;;;;;;5.05;2.20;;;;;;;;;;1714497;83;21109;-77
2022/05/02 13:58:33;;;;;;;5.03;2.10;;;;;;;;;;1713724;83;21064;-79
2022/05/02 14:03:46;;;;;;;3.05;2.02;;;;;;;;;;1723733;82;21041;-78
2022/05/02 14:06:12;;;;;;;2.95;2.10;;;;;;;;;;1722459;83;21021;-77
2022/05/02 14:08:39;;;;;;;8.80;3.22;;;;;;;;;;1723675;83;21036;-78
2022/05/02 14:11:05;;;;;;;6.30;3.22;;;;;;;;;;1723529;83;21064;-78
2022/05/02 14:13:32;;;;;;;3.98;2.35;;;;;;;;;;1723792;83;21072;-77
2022/05/02 14:16:05;;;;;;;3.83;2.15;;;;;;;;;;1724664;82;21058;-78
2022/05/02 14:18:50;;;;;;;2.95;2.05;;;;;;;;;;1723655;83;21054;-78
2022/05/02 14:21:18;;;;;;;5.20;2.30;;;;;;;;;;1686333;85;21127;-78
2022/05/02 14:23:47;;;;;;;6.42;2.20;;;;;;;;;;1723877;83;21042;-78
2022/05/02 14:26:13;;;;;;;3.37;2.12;;;;;;;;;;1690310;84;21024;-77
2022/05/02 14:28:48;;;;;;;3.27;2.00;;;;;;;;;;1723542;82;21077;-77
2022/05/02 14:31:15;;;;;;;3.65;2.10;;;;;;;;;;1685442;85;21627;-78
2022/05/02 14:33:42;;;;;;;2.92;1.95;;;;;;;;;;1723618;82;21083;-78
2022/05/02 14:36:09;;;;;;;2.90;2.00;;;;;;;;;;1723329;83;21524;-78
2022/05/02 14:38:36;;;;;;;3.98;2.30;;;;;;;;;;1722062;83;21116;-78
2022/05/02 14:41:03;;;;;;;2.83;2.30;;;;;;;;;;1723263;82;21516;-77
2022/05/02 14:43:29;;;;;;;3.83;2.17;;;;;;;;;;1724076;82;21067;-78
2022/05/02 14:45:56;;;;;;;3.75;2.70;;;;;;;;;;1724015;83;21021;-78
2022/05/02 14:48:22;;;;;;;3.15;2.33;;;;;;;;;;1723655;83;21084;-78
2022/05/02 14:50:49;;;;;;;4.12;2.42;;;;;;;;;;1723464;83;21032;-78
2022/05/02 14:53:17;;;;;;;29.67;4.58;;;;;;;;;;1723563;83;21539;-77
2022/05/02 14:55:44;;;;;;;3.60;2.42;;;;;;;;;;1723392;83;21544;-77
2022/05/02 14:58:15;;;;;;;6.62;4.62;;;;;;;;;;1724992;82;21088;-78
2022/05/02 15:00:42;;;;;;;3.67;2.62;;;;;;;;;;1724118;83;21100;-77
2022/05/02 15:03:09;;;;;;;3.22;2.27;;;;;;;;;;1724245;82;21108;-77
2022/05/02 15:05:36;;;;;;;3.77;2.17;;;;;;;;;;1719892;83;21033;-77
2022/05/02 15:08:07;;;;;;;3.90;2.22;;;;;;;;;;1717895;83;21104;-78
2022/05/02 15:10:48;;;;;;;2.58;2.12;;;;;;;;;;1718197;82;21576;-78
2022/05/02 15:13:16;;;;;;;2.80;2.17;;;;;;;;;;1725473;82;21050;-78
2022/05/02 15:15:48;;;;;;;11.48;2.50;;;;;;;;;;1719079;83;21080;-76
2022/05/02 15:18:20;;;;;;;4.90;2.27;;;;;;;;;;1725752;81;21034;-77
2022/05/02 15:20:51;;;;;;;3.10;1.95;;;;;;;;;;1685462;85;21061;-77
2022/05/02 15:23:17;;;;;;;2.52;2.02;;;;;;;;;;1727147;83;20979;-76
2022/05/02 15:25:51;;;;;;;6.17;2.20;;;;;;;;;;1726954;81;21564;-76
2022/05/02 15:36:53;;;;;;;3.00;2.25;;;;;;;;;;1720443;83;20993;-77
2022/05/02 15:39:25;;;;;;;3.98;2.12;;;;;;;;;;1722600;83;21053;-78